Time;durP1;ratioP1;P1;durP2;ratioP2;P2;SDS_P1;SDS_P2;PMS_P1;PMS_P2;Temp;Humidity;BMP_temperature;BMP_pressure;BME280_temperature;BME280_humidity;BME280_pressure;Samples;Min_cycle;Max_cycle;Signal;HPM_P1;HPM_P2
2023/06/02 00:03:32;;;;;;;5.35;2.30;;;;;;;11.01;100.00;98488.22;15315639;19;20019;-77
2023/06/02 00:08:57;;;;;;;4.88;2.40;;;;;;;10.97;100.00;98494.94;15348525;19;20018;-76
2023/06/02 00:14:24;;;;;;;7.50;2.75;;;;;;;10.93;100.00;98497.09;15312227;19;20033;-77
2023/06/02 00:19:51;;;;;;;4.90;2.60;;;;;;;10.86;100.00;98496.06;15295010;19;20039;-77
2023/06/02 00:25:16;;;;;;;6.78;2.70;;;;;;;10.71;100.00;98503.91;15304284;19;20035;-77
2023/06/02 00:30:43;;;;;;;8.30;2.70;;;;;;;10.55;100.00;98500.13;15305461;19;20487;-77
2023/06/02 00:36:11;;;;;;;6.75;2.40;;;;;;;10.51;100.00;98498.75;15297999;19;20023;-77
2023/06/02 00:41:37;;;;;;;6.70;2.65;;;;;;;10.38;100.00;98495.63;15298853;19;20054;-78
2023/06/02 00:47:01;;;;;;;9.18;2.40;;;;;;;10.31;100.00;98503.47;15299372;19;20014;-77
2023/06/02 00:52:30;;;;;;;7.38;2.72;;;;;;;10.28;100.00;98509.19;15295746;19;20022;-76
2023/06/02 00:57:56;;;;;;;6.30;2.45;;;;;;;10.32;100.00;98505.16;15297315;19;20019;-77
2023/06/02 01:03:26;;;;;;;6.75;2.63;;;;;;;10.36;100.00;98506.53;15296747;19;20066;-76
2023/06/02 01:08:54;;;;;;;5.50;2.50;;;;;;;10.33;100.00;98506.84;15290017;19;20401;-74
2023/06/02 01:14:20;;;;;;;6.53;2.70;;;;;;;10.29;100.00;98500.09;15290678;19;20018;-76
2023/06/02 01:19:49;;;;;;;7.43;2.60;;;;;;;10.27;100.00;98497.53;15292702;19;20610;-77
2023/06/02 01:25:28;;;;;;;6.97;2.42;;;;;;;10.21;100.00;98497.31;15291958;19;20467;-76
2023/06/02 01:31:03;;;;;;;5.30;2.00;;;;;;;10.14;100.00;98502.50;15295530;19;20022;-77
2023/06/02 01:36:30;;;;;;;9.18;2.53;;;;;;;10.11;100.00;98498.28;15289760;19;20022;-77
2023/06/02 01:41:59;;;;;;;7.05;2.40;;;;;;;10.06;100.00;98494.38;15299261;19;20020;-75
2023/06/02 01:47:25;;;;;;;7.47;2.20;;;;;;;10.06;100.00;98500.56;15286218;19;20014;-75
2023/06/02 01:52:50;;;;;;;4.10;1.85;;;;;;;10.09;100.00;98500.28;15295086;19;20505;-78
2023/06/02 01:58:17;;;;;;;6.45;2.10;;;;;;;10.03;100.00;98498.22;15283909;19;20011;-77
2023/06/02 02:03:42;;;;;;;7.05;2.03;;;;;;;9.97;100.00;98502.38;15283451;19;20025;-76
2023/06/02 02:09:07;;;;;;;6.35;2.00;;;;;;;9.91;100.00;98504.84;15282235;19;20290;-78
2023/06/02 02:14:34;;;;;;;4.20;1.50;;;;;;;9.91;100.00;98504.84;15283123;19;20555;-76
2023/06/02 02:19:59;;;;;;;5.70;1.90;;;;;;;9.92;100.00;98504.69;15278314;19;20074;-76
2023/06/02 02:25:24;;;;;;;6.47;2.00;;;;;;;9.89;100.00;98504.97;15284219;19;20039;-76
2023/06/02 02:30:51;;;;;;;5.82;2.00;;;;;;;9.84;100.00;98508.13;15280646;19;20011;-76
2023/06/02 02:36:18;;;;;;;7.88;2.10;;;;;;;9.73;100.00;98516.44;15277348;19;20035;-76
2023/06/02 02:41:44;;;;;;;7.72;2.20;;;;;;;9.70;100.00;98514.09;15280623;19;20014;-76
2023/06/02 02:47:18;;;;;;;8.20;2.08;;;;;;;9.66;100.00;98515.38;15277394;19;20473;-76
2023/06/02 02:52:43;;;;;;;8.15;2.08;;;;;;;9.58;100.00;98518.00;15277777;19;20835;-77
2023/06/02 02:58:08;;;;;;;9.45;2.17;;;;;;;9.53;100.00;98527.34;15274345;19;20379;-77
2023/06/02 03:03:36;;;;;;;7.10;2.30;;;;;;;9.60;100.00;98526.72;15272707;19;20025;-76
2023/06/02 03:09:01;;;;;;;6.97;2.00;;;;;;;9.56;100.00;98535.13;15280194;19;20477;-75
2023/06/02 03:14:29;;;;;;;11.00;2.30;;;;;;;9.52;100.00;98536.41;15284807;19;20014;-77
2023/06/02 03:19:56;;;;;;;7.15;1.95;;;;;;;9.38;100.00;98540.47;15286103;19;20017;-77
2023/06/02 03:25:24;;;;;;;6.68;1.95;;;;;;;9.35;100.00;98546.16;15296015;19;20034;-81
2023/06/02 03:30:49;;;;;;;10.10;2.00;;;;;;;9.32;100.00;98535.69;15307947;19;20014;-78
2023/06/02 03:36:21;;;;;;;7.07;2.08;;;;;;;9.31;100.00;98542.06;15323455;19;20015;-79
2023/06/02 03:41:48;;;;;;;5.40;1.98;;;;;;;9.29;100.00;98543.22;15360573;19;20026;-80
2023/06/02 03:47:15;;;;;;;8.35;2.50;;;;;;;9.27;100.00;98553.25;15292970;19;20029;-80
2023/06/02 03:52:44;;;;;;;6.65;2.10;;;;;;;9.22;100.00;98562.66;15300184;19;20021;-85
2023/06/02 03:58:09;;;;;;;9.18;2.10;;;;;;;9.24;100.00;98565.19;15294595;19;20056;-81
2023/06/02 04:03:36;;;;;;;6.13;2.08;;;;;;;9.30;100.00;98567.25;15311097;19;20014;-77
2023/06/02 04:09:04;;;;;;;8.52;2.55;;;;;;;9.31;100.00;98565.44;15296437;19;20385;-79
2023/06/02 04:14:31;;;;;;;7.43;2.10;;;;;;;9.19;100.00;98565.63;15303165;19;20042;-78
2023/06/02 04:19:57;;;;;;;9.43;2.58;;;;;;;9.13;100.00;98563.50;15297917;19;20339;-79
2023/06/02 04:25:24;;;;;;;6.57;2.05;;;;;;;9.18;100.00;98572.00;15297064;19;20091;-79
2023/06/02 04:30:51;;;;;;;7.65;2.50;;;;;;;9.17;100.00;98582.91;15305836;19;20010;-78
2023/06/02 04:36:20;;;;;;;8.18;2.20;;;;;;;9.24;100.00;98582.13;15346381;19;20027;-82
2023/06/02 04:41:48;;;;;;;8.23;2.40;;;;;;;9.26;100.00;98573.94;15323652;19;20018;-81
2023/06/02 04:47:15;;;;;;;6.13;2.25;;;;;;;9.22;100.00;98576.09;15306264;19;20038;-81
2023/06/02 04:52:41;;;;;;;8.23;2.08;;;;;;;9.20;100.00;98577.22;15302834;19;20501;-82
2023/06/02 04:58:08;;;;;;;11.25;2.08;;;;;;;9.22;100.00;98580.59;15298208;19;20811;-79
2023/06/02 05:03:42;;;;;;;9.77;2.35;;;;;;;9.37;100.00;98586.31;15300932;19;20038;-81
2023/06/02 05:09:06;;;;;;;7.45;2.08;;;;;;;9.39;100.00;98579.81;15295277;19;20018;-81
2023/06/02 05:14:34;;;;;;;8.32;2.30;;;;;;;9.52;100.00;98581.31;15299853;19;20014;-79
2023/06/02 05:20:00;;;;;;;8.68;2.15;;;;;;;9.66;100.00;98585.31;15295521;19;20042;-80
2023/06/02 05:25:26;;;;;;;8.32;2.10;;;;;;;9.80;100.00;98578.56;15299794;19;20030;-79
2023/06/02 05:30:53;;;;;;;8.27;2.25;;;;;;;9.82;100.00;98574.72;15293239;19;20010;-81
2023/06/02 05:36:20;;;;;;;7.50;2.20;;;;;;;9.90;100.00;98587.41;15294209;19;20017;-79
2023/06/02 05:41:44;;;;;;;6.43;1.90;;;;;;;9.96;100.00;98588.63;15294478;19;20018;-79
2023/06/02 05:47:11;;;;;;;6.50;2.00;;;;;;;10.10;100.00;98589.97;15288792;19;20018;-81
2023/06/02 05:52:36;;;;;;;7.10;2.00;;;;;;;10.23;100.00;98592.25;15293630;19;20014;-80
2023/06/02 05:58:01;;;;;;;8.32;2.20;;;;;;;10.24;100.00;98591.25;15288970;19;20014;-81
2023/06/02 06:03:36;;;;;;;6.78;2.00;;;;;;;10.39;100.00;98596.97;15289530;19;20334;-81
2023/06/02 06:09:02;;;;;;;9.15;2.28;;;;;;;10.51;100.00;98594.88;15296124;19;20011;-82
2023/06/02 06:14:27;;;;;;;6.90;2.03;;;;;;;10.65;100.00;98597.00;15292883;19;20568;-82
2023/06/02 06:26:14;;;;;;;5.95;2.10;;;;;;;10.57;100.00;98611.28;15290462;19;20010;-82
2023/06/02 06:32:03;;;;;;;6.80;2.20;;;;;;;10.76;100.00;98620.97;15309154;19;20053;-81
2023/06/02 06:37:40;;;;;;;8.52;2.17;;;;;;;10.90;100.00;98616.03;15296703;19;20018;-82
2023/06/02 06:43:08;;;;;;;9.75;2.20;;;;;;;10.91;100.00;98617.72;15298412;19;20011;-83
2023/06/02 06:48:50;;;;;;;9.10;2.35;;;;;;;11.00;100.00;98621.31;15287950;19;20485;-83
2023/06/02 06:54:16;;;;;;;9.00;2.50;;;;;;;11.01;100.00;98629.22;15296530;19;20528;-82
2023/06/02 07:00:03;;;;;;;6.88;2.15;;;;;;;11.20;100.00;98627.34;15320219;19;20008;-83
2023/06/02 07:05:38;;;;;;;9.93;2.30;;;;;;;11.15;100.00;98619.72;15361840;19;20019;-84
2023/06/02 07:11:07;;;;;;;7.72;2.40;;;;;;;11.29;100.00;98630.94;15304837;19;20030;-82
2023/06/02 07:16:31;;;;;;;8.25;2.33;;;;;;;11.41;100.00;98629.63;15301482;19;20010;-81
2023/06/02 07:22:01;;;;;;;10.50;2.30;;;;;;;11.30;100.00;98638.84;15303819;19;20007;-83
2023/06/02 07:27:28;;;;;;;8.10;2.33;;;;;;;11.29;100.00;98639.03;15301220;19;20018;-83
2023/06/02 08:13:06;;;;;;;8.88;2.25;;;;;;;12.69;100.00;98617.75;15302802;19;20533;-86
2023/06/02 08:18:34;;;;;;;8.52;2.10;;;;;;;13.06;100.00;98618.22;15312234;19;20078;-83
2023/06/02 08:23:52;;;;;;;6.70;2.45;;;;;;;13.30;100.00;98624.56;15310832;19;20049;-83
2023/06/02 08:29:20;;;;;;;9.88;2.30;;;;;;;13.07;100.00;98622.59;15319317;19;20019;-85
2023/06/02 08:34:55;;;;;;;8.20;2.20;;;;;;;13.18;100.00;98613.25;15322736;19;20482;-87
2023/06/02 08:40:23;;;;;;;6.93;2.20;;;;;;;13.39;100.00;98623.53;15320838;19;20465;-87
2023/06/02 08:45:53;;;;;;;7.15;2.20;;;;;;;13.52;100.00;98623.00;15308552;19;20470;-87
2023/06/02 08:51:23;;;;;;;6.63;2.28;;;;;;;13.61;100.00;98624.66;15312131;19;20022;-84
2023/06/02 08:56:44;;;;;;;7.80;2.30;;;;;;;13.47;100.00;98637.03;15305119;19;20036;-85
2023/06/02 09:02:14;;;;;;;9.48;2.53;;;;;;;13.62;100.00;98630.91;15313312;19;20084;-85
2023/06/02 09:07:41;;;;;;;6.40;2.05;;;;;;;13.68;100.00;98631.03;15305228;19;20018;-83
2023/06/02 09:13:07;;;;;;;6.47;2.05;;;;;;;13.86;100.00;98625.38;15308645;19;20015;-83
2023/06/02 09:18:34;;;;;;;6.82;2.20;;;;;;;13.87;100.00;98632.47;15305642;19;20378;-84
2023/06/02 09:24:00;;;;;;;11.73;2.42;;;;;;;13.93;100.00;98635.50;15313853;19;20034;-85
2023/06/02 09:29:30;;;;;;;9.60;2.50;;;;;;;14.17;100.00;98629.91;15310473;19;20022;-83
2023/06/02 09:34:58;;;;;;;7.47;2.20;;;;;;;14.27;100.00;98635.13;15319376;19;20356;-83
2023/06/02 09:40:36;;;;;;;8.15;2.38;;;;;;;14.23;100.00;98641.06;15312343;19;20375;-83
2023/06/02 09:46:07;;;;;;;7.95;2.25;;;;;;;14.39;100.00;98645.53;15315267;19;20557;-84
2023/06/02 11:39:57;;;;;;;6.07;2.10;;;;;;;18.06;98.22;98629.91;15290712;19;20517;-84
2023/06/02 11:45:24;;;;;;;7.03;2.00;;;;;;;18.21;91.63;98616.13;15308996;19;20034;-83
2023/06/02 11:50:48;;;;;;;6.28;1.83;;;;;;;18.24;98.68;98625.78;15309520;19;20018;-84
2023/06/02 11:56:17;;;;;;;5.88;1.92;;;;;;;18.01;92.64;98637.88;15309578;19;20018;-82
2023/06/02 12:01:42;;;;;;;5.05;1.85;;;;;;;18.09;98.65;98634.16;15307157;19;20145;-82
2023/06/02 12:07:07;;;;;;;4.93;1.88;;;;;;;18.04;95.64;98636.63;15304918;19;20604;-83
2023/06/02 12:12:34;;;;;;;6.65;1.80;;;;;;;18.06;94.53;98637.28;15312220;19;20010;-81
2023/06/02 12:17:59;;;;;;;5.85;1.70;;;;;;;18.14;98.36;98632.47;15307471;19;20022;-84
2023/06/02 12:23:23;;;;;;;4.72;1.90;;;;;;;18.35;91.10;98638.81;15312609;19;20378;-81
2023/06/02 12:28:51;;;;;;;5.25;1.90;;;;;;;18.40;89.71;98639.06;15307364;19;20070;-82
2023/06/02 12:34:17;;;;;;;6.57;2.05;;;;;;;18.66;94.22;98637.38;15317411;19;20014;-83
2023/06/02 12:39:42;;;;;;;5.55;2.10;;;;;;;18.70;88.56;98638.66;15304886;19;20302;-83
2023/06/02 12:45:09;;;;;;;6.10;1.98;;;;;;;18.74;89.32;98641.81;15311173;19;20031;-82
2023/06/02 12:50:34;;;;;;;7.25;2.30;;;;;;;18.75;84.82;98640.75;15310540;19;20007;-83
2023/06/02 12:55:58;;;;;;;7.10;2.05;;;;;;;19.03;83.54;98635.13;15313603;19;20098;-84
2023/06/02 13:01:26;;;;;;;5.97;2.03;;;;;;;19.42;81.21;98631.72;15318943;19;20070;-84
2023/06/02 13:06:52;;;;;;;6.38;2.25;;;;;;;19.35;82.67;98638.00;15301173;19;20055;-83
2023/06/02 13:12:17;;;;;;;10.13;2.35;;;;;;;18.77;86.83;98644.94;15301495;19;20026;-83
2023/06/02 13:17:44;;;;;;;8.43;2.28;;;;;;;18.43;91.66;98641.34;15302514;19;20014;-83
2023/06/02 13:23:11;;;;;;;10.05;2.10;;;;;;;18.38;93.55;98634.84;15306006;19;20016;-83
2023/06/02 13:28:37;;;;;;;8.60;2.08;;;;;;;18.31;97.29;98629.34;15304885;19;20014;-82
2023/06/02 13:34:05;;;;;;;7.28;2.13;;;;;;;18.29;97.27;98631.44;15308444;19;20042;-82
2023/06/02 13:39:36;;;;;;;5.93;1.75;;;;;;;18.31;97.43;98626.63;15306627;19;20021;-83
2023/06/02 13:45:01;;;;;;;7.07;2.10;;;;;;;18.39;89.98;98625.59;15306054;19;20006;-82
2023/06/02 13:50:28;;;;;;;5.90;2.03;;;;;;;18.76;95.96;98628.78;15311322;19;20412;-83
2023/06/02 13:55:53;;;;;;;8.52;1.90;;;;;;;18.98;87.98;98626.72;15302808;19;20090;-83
2023/06/02 14:13:32;;;;;;;5.68;1.83;;;;;;;19.70;78.83;98629.50;15289967;19;19999;-82
2023/06/02 14:25:25;;;;;;;17.55;2.50;;;;;;;20.61;68.60;98626.75;15293017;19;20413;-82
2023/06/02 14:30:58;;;;;;;6.15;2.00;;;;;;;20.30;69.31;98627.59;15288404;19;20581;-83
2023/06/02 14:36:32;;;;;;;5.53;1.67;;;;;;;19.94;70.09;98631.78;15289675;19;20466;-82
2023/06/02 15:15:00;;;;;;;5.47;1.73;;;;;;;17.97;100.00;98636.59;15290570;19;20054;-81
2023/06/02 15:20:59;;;;;;;7.75;1.98;;;;;;;17.85;100.00;98628.16;15302721;19;20019;-82
2023/06/02 15:26:24;;;;;;;6.97;1.70;;;;;;;17.71;100.00;98628.09;15310249;19;20032;-85
2023/06/02 15:44:43;;;;;;;9.32;1.70;;;;;;;18.56;95.98;98634.22;15309950;19;20006;-83
2023/06/02 15:50:56;;;;;;;5.47;1.80;;;;;;;18.79;94.06;98634.66;15312858;19;20031;-83
2023/06/02 15:56:46;;;;;;;4.38;1.63;;;;;;;18.68;95.26;98637.19;15306309;19;20014;-83
2023/06/02 16:02:13;;;;;;;5.93;1.73;;;;;;;18.56;98.40;98635.09;15315474;19;20042;-82
2023/06/02 16:07:41;;;;;;;7.35;1.70;;;;;;;18.47;100.00;98637.16;15311603;19;20021;-82
2023/06/02 16:13:10;;;;;;;4.78;1.70;;;;;;;18.42;100.00;98636.94;15314739;19;20104;-81
2023/06/02 16:18:35;;;;;;;6.75;1.75;;;;;;;18.27;100.00;98636.28;15308797;19;20027;-82
2023/06/02 16:24:20;;;;;;;8.95;2.00;;;;;;;18.18;100.00;98639.19;15328431;19;20025;-82
2023/06/02 16:29:56;;;;;;;3.10;1.38;;;;;;;18.04;100.00;98632.03;15325150;19;20007;-82
2023/06/02 16:35:21;;;;;;;4.57;1.63;;;;;;;17.96;100.00;98635.75;15325491;19;20026;-82
2023/06/02 16:40:56;;;;;;;4.47;1.33;;;;;;;17.81;100.00;98641.34;15328728;19;20014;-81
2023/06/02 16:46:24;;;;;;;3.65;1.52;;;;;;;18.02;100.00;98640.41;15326437;19;20010;-82
2023/06/02 16:51:50;;;;;;;4.63;1.70;;;;;;;18.73;100.00;98645.59;15328580;19;20017;-82
2023/06/02 16:57:18;;;;;;;2.60;1.20;;;;;;;19.28;98.06;98648.13;15325928;19;20018;-82
2023/06/02 17:02:42;;;;;;;3.83;1.40;;;;;;;19.74;96.44;98645.47;15326027;19;20014;-82
2023/06/02 17:08:07;;;;;;;5.72;1.60;;;;;;;20.19;88.04;98637.31;15320346;19;20010;-82
2023/06/02 17:13:34;;;;;;;3.30;1.70;;;;;;;20.41;79.52;98632.38;15330112;19;20010;-83
2023/06/02 17:18:59;;;;;;;3.33;1.40;;;;;;;20.27;75.09;98641.69;15310526;19;20007;-82
2023/06/02 17:24:40;;;;;;;6.63;1.67;;;;;;;19.95;75.57;98642.47;15311111;19;20317;-83
2023/06/02 17:30:29;;;;;;;4.93;1.40;;;;;;;19.51;73.78;98652.28;15315275;19;20003;-82
2023/06/02 17:36:18;;;;;;;4.60;1.40;;;;;;;19.20;78.91;98656.53;15324403;19;20023;-83
2023/06/02 17:41:43;;;;;;;4.53;1.50;;;;;;;18.85;84.10;98649.38;15303192;19;20410;-82
2023/06/02 17:47:11;;;;;;;3.35;1.40;;;;;;;18.50;89.52;98656.91;15324422;19;20052;-83
2023/06/02 17:52:39;;;;;;;4.72;1.42;;;;;;;18.07;97.59;98658.88;15327405;19;20032;-83
2023/06/02 17:58:03;;;;;;;5.47;1.50;;;;;;;17.83;100.00;98652.88;15319258;19;20007;-83
2023/06/02 18:03:44;;;;;;;4.07;1.52;;;;;;;17.59;100.00;98650.66;15305455;19;20010;-82
2023/06/02 18:09:24;;;;;;;3.25;1.50;;;;;;;17.46;100.00;98655.00;15305380;19;20058;-84
2023/06/02 18:14:56;;;;;;;6.80;1.73;;;;;;;17.46;100.00;98648.69;15310825;19;20014;-82
2023/06/02 18:20:16;;;;;;;5.83;1.90;;;;;;;17.51;100.00;98660.69;15309354;19;20640;-82
2023/06/02 18:25:49;;;;;;;6.60;1.50;;;;;;;17.50;100.00;98653.53;15302479;19;20287;-82
2023/06/02 18:31:17;;;;;;;6.70;1.67;;;;;;;17.46;100.00;98659.59;15313810;19;20415;-81
2023/06/02 18:36:55;;;;;;;6.60;1.70;;;;;;;17.32;100.00;98661.41;15313005;19;20086;-83
2023/06/02 18:42:20;;;;;;;4.13;1.60;;;;;;;17.18;100.00;98666.75;15320672;19;20010;-82
2023/06/02 18:47:48;;;;;;;4.68;1.80;;;;;;;17.04;100.00;98670.41;15312772;19;20026;-82
2023/06/02 18:53:31;;;;;;;6.03;1.42;;;;;;;16.90;100.00;98669.44;15321210;19;20025;-83
2023/06/02 18:59:00;;;;;;;4.70;1.60;;;;;;;16.62;100.00;98665.63;15304105;19;20024;-82
2023/06/02 19:04:26;;;;;;;4.15;1.67;;;;;;;16.38;100.00;98666.00;15324005;19;20014;-84
2023/06/02 19:09:53;;;;;;;5.05;1.90;;;;;;;16.18;100.00;98670.19;15318054;19;20028;-87
2023/06/02 19:15:27;;;;;;;3.00;1.50;;;;;;;15.99;100.00;98676.22;15324031;19;20014;-87
2023/06/02 19:21:11;;;;;;;4.28;1.50;;;;;;;15.81;100.00;98692.91;15316039;19;20416;-87
2023/06/02 19:27:20;;;;;;;4.15;1.70;;;;;;;15.57;100.00;98681.28;15317252;19;20033;-87
2023/06/02 19:33:17;;;;;;;4.32;1.60;;;;;;;15.29;100.00;98679.22;15323657;19;20013;-87
2023/06/02 19:38:49;;;;;;;3.60;1.67;;;;;;;15.10;100.00;98686.88;15315775;19;20020;-88
2023/06/02 19:44:17;;;;;;;3.35;1.58;;;;;;;14.97;100.00;98692.06;15315975;19;20011;-83
2023/06/02 19:49:50;;;;;;;4.53;1.88;;;;;;;14.83;100.00;98698.28;15311084;19;20006;-84
2023/06/02 19:55:16;;;;;;;3.92;1.70;;;;;;;14.67;100.00;98699.22;15314202;19;20017;-86
2023/06/02 20:00:49;;;;;;;3.97;1.67;;;;;;;14.48;100.00;98699.53;15317313;19;20027;-87
2023/06/02 20:19:35;;;;;;;4.47;1.75;;;;;;;13.89;100.00;98710.84;15313987;19;20515;-85
2023/06/02 20:24:59;;;;;;;3.90;1.60;;;;;;;13.76;100.00;98713.28;15270064;19;20118;-40
2023/06/02 20:30:25;;;;;;;3.10;1.60;;;;;;;13.64;100.00;98719.03;15283777;19;20021;-41
2023/06/02 20:35:52;;;;;;;3.72;1.80;;;;;;;13.55;100.00;98720.94;15278847;19;20031;-41
2023/06/02 20:41:16;;;;;;;4.40;1.77;;;;;;;13.50;100.00;98723.31;15277232;19;20447;-40
2023/06/02 20:46:41;;;;;;;4.28;2.00;;;;;;;13.35;100.00;98731.28;15279241;19;20418;-40
2023/06/02 20:52:09;;;;;;;3.42;1.60;;;;;;;13.18;100.00;98741.28;15281985;19;20030;-41
2023/06/02 20:57:33;;;;;;;3.03;1.40;;;;;;;13.00;100.00;98738.75;15284101;19;20467;-40
2023/06/02 21:02:59;;;;;;;2.22;1.15;;;;;;;12.88;100.00;98756.31;15280824;19;20014;-41
2023/06/02 21:08:27;;;;;;;2.42;1.27;;;;;;;12.73;100.00;98742.63;15276231;19;20439;-40
2023/06/02 21:13:52;;;;;;;2.95;1.17;;;;;;;12.60;100.00;98743.94;15279208;19;20114;-41
2023/06/02 21:19:16;;;;;;;7.25;1.40;;;;;;;12.44;100.00;98747.47;15273331;19;20484;-42
2023/06/02 21:24:56;;;;;;;3.75;1.23;;;;;;;12.23;100.00;98742.50;15281585;19;20010;-42
2023/06/02 21:30:20;;;;;;;5.38;1.00;;;;;;;12.07;100.00;98751.41;15280617;19;20018;-41
2023/06/02 21:35:45;;;;;;;3.28;1.00;;;;;;;11.95;100.00;98755.38;15283825;19;20014;-41
2023/06/02 21:41:12;;;;;;;4.18;0.88;;;;;;;11.84;100.00;98756.50;15272949;19;20017;-42
2023/06/02 21:46:37;;;;;;;1.83;0.90;;;;;;;11.78;100.00;98757.16;15280526;19;20020;-41
2023/06/02 21:52:01;;;;;;;3.22;0.90;;;;;;;11.70;100.00;98777.66;15271310;19;20024;-41
2023/06/02 21:57:29;;;;;;;3.00;0.80;;;;;;;11.56;100.00;98772.88;15279657;19;20025;-43
2023/06/02 22:02:53;;;;;;;4.20;0.80;;;;;;;11.48;100.00;98775.50;15279188;19;20451;-41
2023/06/02 22:08:18;;;;;;;3.50;0.70;;;;;;;11.44;100.00;98779.53;15278245;19;20017;-41
2023/06/02 22:13:46;;;;;;;2.25;0.80;;;;;;;11.38;100.00;98787.25;15273883;19;20849;-41
2023/06/02 22:19:11;;;;;;;3.95;0.70;;;;;;;11.31;100.00;98783.50;15277500;19;20069;-41
2023/06/02 22:24:42;;;;;;;2.63;0.70;;;;;;;11.22;100.00;98787.16;15276005;19;20574;-41
2023/06/02 22:30:10;;;;;;;3.40;0.67;;;;;;;11.12;100.00;98791.75;15276215;19;20013;-41
2023/06/02 22:35:36;;;;;;;1.67;0.70;;;;;;;11.03;100.00;98789.00;14770246;19;9999788;-42
2023/06/02 22:41:01;;;;;;;3.15;0.80;;;;;;;10.91;100.00;98779.44;15276031;19;20014;-43
2023/06/02 22:46:28;;;;;;;3.00;0.80;;;;;;;10.86;100.00;98781.78;15274773;19;20019;-41
2023/06/02 22:51:52;;;;;;;2.25;0.60;;;;;;;10.77;100.00;98788.94;15275535;19;20671;-40
2023/06/02 22:57:18;;;;;;;2.97;0.68;;;;;;;10.70;100.00;98794.09;15283677;19;20401;-40
2023/06/02 23:02:46;;;;;;;1.10;0.55;;;;;;;10.63;100.00;98785.75;15279111;19;20017;-40
2023/06/02 23:08:05;;;;;;;2.20;0.60;;;;;;;10.57;100.00;98793.59;15278051;19;20010;-41
2023/06/02 23:13:30;;;;;;;2.80;0.73;;;;;;;10.47;100.00;98789.13;15277031;19;20010;-40
2023/06/02 23:18:57;;;;;;;2.58;0.50;;;;;;;10.40;100.00;98798.84;15269728;19;20358;-40
2023/06/02 23:24:29;;;;;;;3.70;0.80;;;;;;;10.35;100.00;98806.47;15265823;19;20022;-41
2023/06/02 23:29:54;;;;;;;2.10;0.68;;;;;;;10.23;100.00;98803.13;15275650;19;20010;-40
2023/06/02 23:35:22;;;;;;;2.03;0.50;;;;;;;10.14;100.00;98804.03;15271850;19;20399;-40
2023/06/02 23:40:49;;;;;;;0.77;0.50;;;;;;;10.01;100.00;98804.38;15285980;19;20014;-40
2023/06/02 23:46:14;;;;;;;2.63;0.70;;;;;;;9.93;100.00;98818.56;15289475;19;20471;-40
2023/06/02 23:51:43;;;;;;;0.95;0.50;;;;;;;9.80;100.00;98828.81;15284874;19;20019;-40
2023/06/02 23:57:08;;;;;;;1.55;0.70;;;;;;;9.64;100.00;98826.72;15283813;19;20010;-40
